createdAt,value
2019-05-20T00:02:31.944Z,2.00
2019-05-20T00:07:34.477Z,2.05
2019-05-20T00:12:36.830Z,1.87
2019-05-20T00:17:39.232Z,2.30
2019-05-20T00:22:41.555Z,2.45
2019-05-20T00:27:43.943Z,2.04
2019-05-20T00:32:46.222Z,2.15
2019-05-20T00:37:48.490Z,2.10
2019-05-20T00:42:51.083Z,2.10
2019-05-20T00:47:54.895Z,2.10
2019-05-20T00:52:57.353Z,2.35
2019-05-20T00:57:59.791Z,2.40
2019-05-20T01:03:02.130Z,2.40
2019-05-20T01:08:04.412Z,2.30
2019-05-20T01:13:06.780Z,2.97
2019-05-20T01:18:09.076Z,3.10
2019-05-20T01:23:11.357Z,3.00
2019-05-20T01:28:13.652Z,2.75
2019-05-20T01:33:15.955Z,2.85
2019-05-20T01:38:18.205Z,2.67
2019-05-20T01:43:20.478Z,3.10
2019-05-20T01:48:22.821Z,3.27
2019-05-20T01:53:25.177Z,3.63
2019-05-20T01:58:27.530Z,3.63
2019-05-20T02:03:32.194Z,4.03
2019-05-20T02:08:33.821Z,4.40
2019-05-20T02:13:53.216Z,4.37
2019-05-20T02:18:57.112Z,5.00
2019-05-20T02:23:59.397Z,5.25
2019-05-20T02:29:01.680Z,5.97
2019-05-20T02:34:04.001Z,5.67
2019-05-20T02:39:06.329Z,5.83
2019-05-20T02:44:09.007Z,6.60
2019-05-20T02:49:11.281Z,6.65
2019-05-20T02:54:13.558Z,6.85
2019-05-20T02:59:15.827Z,7.42
2019-05-20T03:04:18.088Z,7.62
2019-05-20T03:09:20.456Z,8.20
2019-05-20T03:14:22.735Z,7.40
2019-05-20T03:19:25.023Z,7.62
2019-05-20T03:24:27.394Z,8.33
2019-05-20T03:29:29.666Z,8.53
2019-05-20T03:34:47.661Z,8.08
2019-05-20T03:39:35.932Z,9.73
2019-05-20T03:44:38.241Z,9.70
2019-05-20T03:49:40.526Z,9.93
2019-05-20T03:54:42.890Z,9.95
2019-05-20T03:59:45.247Z,10.43
2019-05-20T04:05:01.206Z,9.67
2019-05-20T04:09:51.845Z,10.13
2019-05-20T04:14:54.165Z,11.13
2019-05-20T04:19:56.452Z,11.90
2019-05-20T04:24:58.782Z,10.57
2019-05-20T04:30:01.138Z,11.43
2019-05-20T04:35:20.816Z,10.85
2019-05-20T04:40:08.468Z,11.28
2019-05-20T04:45:11.019Z,10.03
2019-05-20T04:50:13.477Z,10.43
2019-05-20T04:55:15.888Z,10.48
2019-05-20T05:00:37.981Z,10.50
2019-05-20T05:05:40.251Z,10.58
2019-05-20T05:10:42.720Z,10.60
2019-05-20T05:15:45.557Z,10.15
2019-05-20T05:20:47.916Z,10.80
2019-05-20T05:25:50.673Z,10.20
2019-05-20T05:30:53.109Z,11.48
2019-05-20T05:35:55.496Z,10.53
2019-05-20T05:40:57.779Z,11.28
2019-05-20T05:46:00.165Z,11.90
2019-05-20T05:51:02.508Z,11.18
2019-05-20T05:56:04.796Z,11.95
2019-05-20T06:01:07.161Z,12.33
2019-05-20T06:06:12.820Z,12.40
2019-05-20T06:11:13.531Z,12.35
2019-05-20T06:16:15.891Z,12.70
2019-05-20T06:21:18.535Z,13.13
2019-05-20T06:26:20.800Z,12.78
2019-05-20T06:31:23.215Z,13.03
2019-05-20T06:36:27.175Z,13.53
2019-05-20T06:41:29.729Z,12.60
2019-05-20T06:46:32.043Z,13.85
2019-05-20T06:51:34.740Z,22.15
2019-05-20T06:56:37.538Z,15.23
2019-05-20T07:01:40.022Z,14.65
2019-05-20T07:06:46.685Z,14.85
2019-05-20T07:11:52.840Z,18.07
2019-05-20T07:16:50.296Z,17.67
2019-05-20T07:21:52.640Z,16.87
2019-05-20T07:26:55.002Z,17.57
2019-05-20T07:31:57.280Z,15.13
2019-05-20T07:37:03.757Z,15.15
2019-05-20T07:42:03.599Z,15.32
2019-05-20T07:47:06.195Z,14.80
2019-05-20T07:52:09.075Z,13.78
2019-05-20T07:57:13.253Z,14.28
2019-05-20T08:02:15.588Z,13.90
2019-05-20T08:07:30.054Z,13.88
2019-05-20T08:12:21.941Z,12.70
2019-05-20T08:17:24.491Z,13.50
2019-05-20T08:22:26.782Z,13.25
2019-05-20T08:27:29.073Z,13.13
2019-05-20T08:32:31.437Z,12.47
2019-05-20T08:37:44.865Z,13.05
2019-05-20T08:42:37.954Z,10.78
2019-05-20T08:47:40.244Z,12.30
2019-05-20T08:52:42.537Z,12.57
2019-05-20T08:57:44.851Z,12.13
2019-05-20T09:02:47.248Z,14.10
2019-05-20T09:08:02.357Z,12.85
2019-05-20T09:12:53.843Z,12.05
2019-05-20T09:17:56.165Z,12.82
2019-05-20T09:23:00.469Z,13.30
2019-05-20T09:28:02.494Z,12.45
2019-05-20T09:33:05.985Z,13.08
2019-05-20T09:38:19.380Z,14.68
2019-05-20T09:43:12.407Z,14.07
2019-05-20T09:48:14.890Z,14.35
2019-05-20T09:53:18.661Z,13.30
2019-05-20T09:58:20.936Z,14.63
2019-05-20T10:03:23.225Z,13.72
2019-05-20T10:08:37.710Z,14.73
2019-05-20T10:13:29.541Z,15.50
2019-05-20T10:18:37.325Z,14.95
2019-05-20T10:23:35.965Z,14.80
2019-05-20T10:28:42.049Z,16.20
2019-05-20T10:33:42.638Z,16.95
2019-05-20T10:38:58.090Z,15.05
2019-05-20T10:43:49.005Z,14.68
2019-05-20T10:48:51.300Z,16.65
2019-05-20T10:53:53.597Z,14.33
2019-05-20T10:58:55.874Z,15.23
2019-05-20T11:03:58.182Z,15.95
2019-05-20T11:09:13.174Z,16.90
2019-05-20T11:14:04.575Z,17.42
2019-05-20T11:19:06.892Z,16.73
2019-05-20T11:24:09.337Z,19.20
2019-05-20T11:29:11.602Z,15.85
2019-05-20T11:34:13.982Z,16.07
2019-05-20T11:39:31.351Z,16.00
2019-05-20T11:44:20.400Z,16.05
2019-05-20T11:49:22.715Z,15.03
2019-05-20T11:54:25.076Z,16.95
2019-05-20T11:59:27.469Z,17.20
2019-05-20T12:04:29.769Z,16.50
2019-05-20T12:09:46.590Z,19.20
2019-05-20T12:14:36.105Z,18.92
2019-05-20T12:19:38.394Z,18.55
2019-05-20T12:24:40.694Z,19.42
2019-05-20T12:29:43.040Z,20.07
2019-05-20T12:34:45.389Z,20.25
2019-05-20T12:39:47.754Z,20.97
2019-05-20T12:44:50.128Z,19.45
2019-05-20T12:49:52.429Z,21.33
2019-05-20T12:55:06.783Z,21.02
2019-05-20T12:59:59.157Z,21.90
2019-05-20T13:05:01.637Z,22.25
2019-05-20T13:10:26.668Z,20.95
2019-05-20T13:15:13.645Z,22.90
2019-05-20T13:20:15.977Z,26.23
2019-05-20T13:25:18.353Z,26.57
2019-05-20T13:30:21.007Z,29.55
2019-05-20T13:35:23.416Z,30.90
2019-05-20T13:40:25.734Z,29.25
2019-05-20T13:45:28.316Z,32.58
2019-05-20T13:50:30.688Z,32.20
2019-05-20T13:55:32.970Z,31.30
2019-05-20T14:00:35.457Z,30.44
2019-05-20T14:05:37.723Z,29.85
2019-05-20T14:10:40.381Z,30.05
2019-05-20T14:15:42.751Z,27.67
2019-05-20T14:20:45.035Z,28.87
2019-05-20T14:25:47.326Z,28.17
2019-05-20T14:30:49.642Z,28.27
2019-05-20T14:35:51.942Z,28.00
2019-05-20T14:40:54.594Z,26.77
2019-05-20T14:45:56.974Z,29.27
2019-05-20T14:50:59.515Z,26.42
2019-05-20T14:56:01.810Z,30.15
2019-05-20T15:01:04.181Z,28.36
2019-05-20T15:06:06.486Z,27.17
2019-05-20T15:11:08.795Z,28.25
2019-05-20T15:16:11.188Z,28.00
2019-05-20T15:21:13.576Z,27.62
2019-05-20T15:26:16.015Z,28.73
2019-05-20T15:31:18.300Z,27.82
2019-05-20T15:36:20.908Z,29.65
2019-05-20T15:41:23.241Z,27.73
2019-05-20T15:46:25.547Z,29.52
2019-05-20T15:51:27.942Z,27.73
2019-05-20T15:56:30.380Z,27.60
2019-05-20T16:01:32.807Z,39.53
2019-05-20T16:06:35.208Z,25.07
2019-05-20T16:11:37.555Z,23.95
2019-05-20T16:16:39.968Z,23.45
2019-05-20T16:21:42.351Z,23.00
2019-05-20T16:26:44.896Z,25.48
2019-05-20T16:31:47.342Z,22.77
2019-05-20T16:36:49.760Z,24.00
2019-05-20T16:41:52.074Z,24.45
2019-05-20T16:46:54.366Z,21.85
2019-05-20T16:51:56.685Z,20.05
2019-05-20T16:56:59.417Z,20.72
2019-05-20T17:02:01.804Z,24.23
2019-05-20T17:07:04.123Z,22.48
2019-05-20T17:12:06.406Z,19.40
2019-05-20T17:17:09.005Z,19.13
2019-05-20T17:22:11.559Z,17.65
2019-05-20T17:27:13.867Z,18.17
2019-05-20T17:32:16.194Z,18.45
2019-05-20T17:37:18.597Z,17.55
2019-05-20T17:42:21.006Z,16.70
2019-05-20T17:47:23.357Z,24.75
2019-05-20T17:52:25.712Z,26.62
2019-05-20T17:57:28.109Z,29.18
2019-05-20T18:02:30.625Z,30.88
2019-05-20T18:07:33.065Z,31.14
2019-05-20T18:12:35.636Z,31.45
2019-05-20T18:17:38.034Z,31.35
2019-05-20T18:22:40.407Z,32.23
2019-05-20T18:27:42.706Z,31.52
2019-05-20T18:32:45.098Z,32.67
2019-05-20T18:37:47.486Z,33.88
2019-05-20T18:42:50.023Z,35.00
2019-05-20T18:47:52.597Z,34.27
2019-05-20T18:52:55.260Z,35.00
2019-05-20T18:57:57.650Z,37.75
2019-05-20T19:02:59.976Z,37.38
2019-05-20T19:08:02.373Z,40.05
2019-05-20T19:13:04.850Z,42.10
2019-05-20T19:18:07.446Z,42.70
2019-05-20T19:23:09.876Z,44.48
2019-05-20T19:28:12.306Z,43.08
2019-05-20T19:33:14.990Z,45.05
2019-05-20T19:38:17.335Z,43.95
2019-05-20T19:43:19.674Z,45.70
2019-05-20T19:48:22.181Z,46.25
2019-05-20T19:53:24.432Z,46.88
2019-05-20T19:58:26.768Z,47.90
2019-05-20T20:03:29.075Z,47.53
2019-05-20T20:08:31.445Z,49.15
2019-05-20T20:13:34.553Z,48.85
2019-05-20T20:18:37.152Z,43.83
2019-05-20T20:23:39.469Z,44.03
2019-05-20T20:28:42.263Z,43.02
2019-05-20T20:33:44.570Z,42.70
2019-05-20T20:38:46.895Z,39.18
2019-05-20T20:43:49.170Z,40.67
2019-05-20T20:48:51.476Z,40.70
2019-05-20T20:53:53.849Z,40.23
2019-05-20T20:58:56.139Z,40.63
2019-05-20T21:03:58.666Z,40.27
2019-05-20T21:09:00.963Z,42.50
2019-05-20T21:14:03.280Z,40.53
2019-05-20T21:19:05.601Z,40.85
2019-05-20T21:24:08.017Z,41.17
2019-05-20T21:29:10.711Z,40.80
2019-05-20T21:34:13.066Z,39.73
2019-05-20T21:39:15.380Z,42.43
2019-05-20T21:44:17.679Z,41.42
2019-05-20T21:49:20.032Z,44.50
2019-05-20T21:54:22.327Z,45.50
2019-05-20T21:59:24.677Z,46.40
2019-05-20T22:04:27.322Z,32.85
2019-05-20T22:09:29.579Z,25.55
2019-05-20T22:14:32.009Z,21.30
2019-05-20T22:19:34.277Z,21.32
2019-05-20T22:24:36.638Z,21.97
2019-05-20T22:29:38.998Z,25.70
2019-05-20T22:34:52.807Z,28.57
2019-05-20T22:39:45.340Z,31.57
2019-05-20T22:44:47.623Z,32.33
2019-05-20T22:49:49.905Z,32.45
2019-05-20T22:54:53.733Z,33.13
2019-05-20T22:59:56.024Z,32.55
2019-05-20T23:04:58.700Z,32.95
2019-05-20T23:10:01.051Z,37.23
2019-05-20T23:15:04.696Z,38.30
2019-05-20T23:20:07.967Z,41.15
2019-05-20T23:25:10.621Z,41.00
2019-05-20T23:30:12.930Z,40.85
2019-05-20T23:35:15.236Z,41.42
2019-05-20T23:40:17.509Z,37.67
2019-05-20T23:45:19.775Z,39.63
2019-05-20T23:50:22.025Z,36.75
2019-05-20T23:55:24.560Z,37.42
